createdAt,value
2019-01-14T00:00:51.134Z,99.99
2019-01-14T00:01:51.304Z,99.99
2019-01-14T00:02:51.481Z,99.99
2019-01-14T00:03:51.667Z,99.99
2019-01-14T00:04:55.513Z,99.99
2019-01-14T00:05:51.996Z,99.99
2019-01-14T00:06:52.171Z,99.99
2019-01-14T00:07:52.338Z,99.99
2019-01-14T00:08:52.513Z,99.99
2019-01-14T00:09:52.694Z,99.99
2019-01-14T00:10:52.859Z,99.99
2019-01-14T00:11:53.033Z,99.99
2019-01-14T00:12:53.202Z,99.99
2019-01-14T00:13:53.385Z,99.99
2019-01-14T00:14:53.546Z,99.99
2019-01-14T00:15:53.720Z,99.99
2019-01-14T00:16:54.691Z,99.99
2019-01-14T00:17:54.065Z,99.99
2019-01-14T00:18:54.239Z,99.99
2019-01-14T00:19:54.415Z,99.99
2019-01-14T00:20:54.579Z,99.99
2019-01-14T00:21:54.744Z,99.99
2019-01-14T00:22:54.929Z,99.99
2019-01-14T00:23:55.101Z,99.99
2019-01-14T00:24:55.277Z,99.99
2019-01-14T00:25:55.444Z,99.99
2019-01-14T00:26:55.620Z,99.99
2019-01-14T00:27:55.792Z,99.99
2019-01-14T00:28:55.963Z,99.99
2019-01-14T00:29:56.155Z,99.99
2019-01-14T00:30:56.319Z,99.99
2019-01-14T00:31:56.487Z,99.99
2019-01-14T00:32:56.660Z,99.99
2019-01-14T00:33:56.828Z,99.99
2019-01-14T00:34:56.994Z,99.99
2019-01-14T00:35:57.165Z,99.99
2019-01-14T00:36:57.344Z,99.99
2019-01-14T00:37:57.512Z,99.99
2019-01-14T00:38:57.677Z,99.99
2019-01-14T00:39:57.850Z,99.99
2019-01-14T00:40:58.028Z,99.99
2019-01-14T00:41:58.196Z,99.99
2019-01-14T00:42:58.366Z,99.99
2019-01-14T00:43:58.541Z,99.99
2019-01-14T00:44:58.721Z,99.99
2019-01-14T00:45:58.884Z,99.99
2019-01-14T00:46:59.058Z,99.99
2019-01-14T00:47:59.238Z,99.99
2019-01-14T00:48:59.397Z,99.99
2019-01-14T00:49:59.567Z,99.99
2019-01-14T00:50:59.750Z,99.99
2019-01-14T00:51:59.919Z,99.99
2019-01-14T00:53:00.080Z,99.99
2019-01-14T00:54:00.254Z,99.99
2019-01-14T00:55:00.419Z,99.99
2019-01-14T00:56:00.586Z,99.99
2019-01-14T00:57:00.757Z,99.99
2019-01-14T00:58:00.928Z,99.99
2019-01-14T00:59:01.103Z,99.99
2019-01-14T01:00:01.322Z,99.99
2019-01-14T01:01:01.451Z,99.99
2019-01-14T01:02:01.622Z,99.99
2019-01-14T01:03:01.789Z,99.92
2019-01-14T01:04:01.967Z,99.64
2019-01-14T01:05:02.139Z,99.64
2019-01-14T01:07:02.486Z,98.97
2019-01-14T01:08:02.644Z,99.16
2019-01-14T01:10:02.986Z,99.16
2019-01-14T01:12:03.319Z,99.64
2019-01-14T01:13:03.498Z,99.83
2019-01-14T01:14:03.661Z,99.73
2019-01-14T01:15:03.820Z,99.26
2019-01-14T01:17:04.157Z,98.79
2019-01-14T01:18:04.332Z,99.16
2019-01-14T01:19:04.500Z,99.35
2019-01-14T01:20:04.676Z,99.44
2019-01-14T01:21:04.844Z,99.64
2019-01-14T01:22:05.021Z,98.79
2019-01-14T01:23:05.196Z,99.73
2019-01-14T01:24:05.362Z,99.73
2019-01-14T01:25:05.545Z,98.88
2019-01-14T01:26:05.707Z,98.97
2019-01-14T01:27:05.881Z,98.59
2019-01-14T01:28:06.050Z,98.88
2019-01-14T01:29:06.231Z,98.69
2019-01-14T01:30:06.401Z,98.59
2019-01-14T01:31:06.594Z,98.50
2019-01-14T01:32:06.773Z,98.50
2019-01-14T01:33:06.953Z,98.59
2019-01-14T01:34:07.119Z,99.16
2019-01-14T01:35:07.287Z,98.50
2019-01-14T01:36:07.467Z,98.21
2019-01-14T01:37:07.633Z,98.83
2019-01-14T01:38:07.805Z,98.79
2019-01-14T01:39:07.977Z,99.07
2019-01-14T01:40:08.156Z,98.79
2019-01-14T01:41:08.328Z,99.02
2019-01-14T01:42:08.493Z,98.69
2019-01-14T01:43:08.668Z,99.07
2019-01-14T01:44:08.844Z,99.16
2019-01-14T01:45:09.016Z,98.88
2019-01-14T01:46:09.187Z,98.69
2019-01-14T01:47:09.363Z,99.30
2019-01-14T01:48:09.530Z,99.40
2019-01-14T01:49:09.710Z,98.93
2019-01-14T01:50:09.875Z,98.69
2019-01-14T01:51:10.046Z,99.26
2019-01-14T01:52:10.219Z,98.50
2019-01-14T01:53:10.389Z,98.74
2019-01-14T01:54:10.567Z,98.97
2019-01-14T01:55:10.743Z,99.07
2019-01-14T01:56:10.914Z,98.97
2019-01-14T01:57:11.100Z,98.97
2019-01-14T01:58:11.255Z,98.69
2019-01-14T01:59:11.428Z,98.79
2019-01-14T02:00:11.603Z,99.35
2019-01-14T02:01:11.770Z,99.16
2019-01-14T02:02:11.937Z,99.44
2019-01-14T02:04:12.280Z,99.99
2019-01-14T02:05:12.451Z,99.99
2019-01-14T02:06:12.625Z,99.99
2019-01-14T02:07:12.796Z,99.99
2019-01-14T02:08:12.969Z,99.99
2019-01-14T02:09:13.141Z,99.99
2019-01-14T02:10:13.315Z,99.99
2019-01-14T02:11:13.491Z,99.99
2019-01-14T02:12:13.657Z,99.99
2019-01-14T02:13:13.835Z,99.73
2019-01-14T02:14:14.009Z,99.99
2019-01-14T02:15:14.185Z,99.73
2019-01-14T02:16:14.350Z,99.92
2019-01-14T02:17:14.520Z,99.99
2019-01-14T02:18:14.692Z,99.07
2019-01-14T02:19:14.865Z,99.73
2019-01-14T02:20:15.045Z,99.83
2019-01-14T02:21:15.207Z,99.99
2019-01-14T02:22:15.378Z,99.99
2019-01-14T02:23:15.559Z,99.99
2019-01-14T02:24:15.720Z,99.99
2019-01-14T02:25:15.891Z,99.99
2019-01-14T02:26:16.066Z,99.73
2019-01-14T02:27:16.243Z,99.07
2019-01-14T02:28:16.411Z,99.07
2019-01-14T02:29:16.592Z,98.97
2019-01-14T02:30:16.751Z,99.07
2019-01-14T02:31:16.929Z,99.16
2019-01-14T02:32:17.096Z,98.79
2019-01-14T02:33:17.269Z,99.35
2019-01-14T02:34:17.440Z,99.07
2019-01-14T02:35:17.610Z,97.55
2019-01-14T02:36:17.786Z,97.64
2019-01-14T02:37:17.956Z,97.17
2019-01-14T02:38:18.127Z,96.22
2019-01-14T02:39:18.312Z,95.94
2019-01-14T02:40:18.470Z,96.12
2019-01-14T02:41:18.651Z,95.94
2019-01-14T02:42:18.812Z,95.84
2019-01-14T02:43:18.984Z,95.17
2019-01-14T02:44:19.162Z,94.51
2019-01-14T02:45:19.336Z,94.70
2019-01-14T02:46:19.517Z,94.60
2019-01-14T02:47:19.675Z,94.60
2019-01-14T02:48:19.847Z,93.08
2019-01-14T02:49:20.020Z,92.04
2019-01-14T02:50:20.189Z,92.28
2019-01-14T02:51:20.365Z,92.28
2019-01-14T02:52:20.533Z,92.94
2019-01-14T02:53:20.706Z,92.18
2019-01-14T02:54:20.886Z,91.99
2019-01-14T02:55:21.049Z,92.94
2019-01-14T02:56:21.223Z,92.75
2019-01-14T02:57:21.395Z,93.60
2019-01-14T02:58:21.565Z,93.32
2019-01-14T02:59:21.740Z,93.23
2019-01-14T03:00:21.914Z,93.04
2019-01-14T03:01:22.084Z,93.23
2019-01-14T03:02:22.257Z,93.60
2019-01-14T03:03:22.430Z,93.60
2019-01-14T03:04:22.604Z,93.41
2019-01-14T03:05:22.767Z,93.23
2019-01-14T03:06:22.954Z,93.56
2019-01-14T03:07:23.112Z,93.89
2019-01-14T03:08:23.285Z,93.51
2019-01-14T03:09:23.461Z,93.60
2019-01-14T03:10:23.623Z,94.37
2019-01-14T03:11:23.799Z,94.18
2019-01-14T03:12:23.975Z,93.89
2019-01-14T03:13:24.140Z,94.46
2019-01-14T03:14:24.313Z,94.46
2019-01-14T03:15:24.480Z,93.60
2019-01-14T03:16:24.653Z,93.60
2019-01-14T03:17:24.827Z,93.60
2019-01-14T03:18:24.999Z,94.08
2019-01-14T03:19:25.169Z,94.27
2019-01-14T03:20:25.344Z,94.37
2019-01-14T03:21:25.516Z,94.56
2019-01-14T03:22:25.688Z,94.74
2019-01-14T03:23:25.859Z,94.93
2019-01-14T03:24:26.033Z,95.12
2019-01-14T03:25:26.202Z,95.31
2019-01-14T03:26:26.377Z,95.03
2019-01-14T03:27:26.543Z,95.12
2019-01-14T03:28:26.717Z,95.31
2019-01-14T03:29:26.896Z,95.12
2019-01-14T03:30:27.061Z,95.79
2019-01-14T03:31:27.234Z,95.84
2019-01-14T03:32:27.408Z,96.26
2019-01-14T03:33:27.573Z,96.55
2019-01-14T03:34:27.744Z,96.17
2019-01-14T03:35:27.919Z,95.89
2019-01-14T03:36:28.094Z,95.89
2019-01-14T03:37:28.268Z,95.70
2019-01-14T03:38:28.436Z,95.70
2019-01-14T03:39:28.604Z,96.26
2019-01-14T03:40:28.773Z,96.41
2019-01-14T03:41:28.943Z,96.55
2019-01-14T03:42:29.124Z,96.50
2019-01-14T03:43:29.285Z,96.55
2019-01-14T03:44:29.456Z,97.12
2019-01-14T03:45:29.628Z,96.45
2019-01-14T03:46:29.799Z,96.55
2019-01-14T03:47:29.982Z,96.45
2019-01-14T03:48:30.141Z,96.97
2019-01-14T03:49:30.310Z,97.02
2019-01-14T03:50:30.482Z,97.07
2019-01-14T03:51:30.653Z,97.02
2019-01-14T03:52:30.830Z,96.93
2019-01-14T03:53:30.994Z,97.22
2019-01-14T03:54:31.168Z,97.02
2019-01-14T03:55:31.336Z,96.93
2019-01-14T03:56:31.516Z,96.93
2019-01-14T03:57:31.683Z,97.02
2019-01-14T03:58:31.853Z,96.55
2019-01-14T03:59:32.036Z,96.93
2019-01-14T04:00:32.197Z,96.74
2019-01-14T04:01:32.371Z,96.93
2019-01-14T04:02:32.545Z,97.31
2019-01-14T04:03:32.721Z,97.02
2019-01-14T04:04:32.885Z,97.02
2019-01-14T04:05:33.065Z,96.93
2019-01-14T04:06:33.240Z,97.02
2019-01-14T04:07:33.401Z,96.93
2019-01-14T04:08:33.576Z,96.26
2019-01-14T04:09:33.745Z,95.60
2019-01-14T04:10:33.932Z,96.45
2019-01-14T04:11:34.090Z,95.31
2019-01-14T04:12:34.256Z,94.93
2019-01-14T04:13:34.428Z,95.03
2019-01-14T04:14:34.603Z,95.22
2019-01-14T04:15:34.778Z,95.31
2019-01-14T04:16:34.992Z,95.31
2019-01-14T04:17:35.112Z,95.51
2019-01-14T04:18:35.289Z,95.31
2019-01-14T04:19:35.457Z,95.03
2019-01-14T04:20:35.631Z,95.03
2019-01-14T04:21:35.798Z,95.22
2019-01-14T04:22:35.977Z,94.93
2019-01-14T04:23:36.145Z,94.93
2019-01-14T04:24:36.316Z,95.31
2019-01-14T04:25:36.490Z,95.03
2019-01-14T04:26:36.655Z,95.31
2019-01-14T04:27:36.825Z,95.31
2019-01-14T04:28:36.996Z,95.60
2019-01-14T04:29:37.170Z,95.12
2019-01-14T04:30:37.342Z,95.98
2019-01-14T04:31:37.518Z,96.08
2019-01-14T04:32:37.686Z,95.03
2019-01-14T04:33:37.860Z,95.03
2019-01-14T04:34:38.035Z,95.41
2019-01-14T04:35:38.219Z,95.03
2019-01-14T04:36:38.378Z,95.41
2019-01-14T04:37:38.550Z,95.03
2019-01-14T04:38:38.738Z,94.74
2019-01-14T04:39:38.900Z,95.12
2019-01-14T04:40:39.066Z,94.46
2019-01-14T04:41:39.256Z,94.37
2019-01-14T04:42:39.419Z,94.74
2019-01-14T04:43:39.592Z,94.74
2019-01-14T04:44:39.762Z,95.41
2019-01-14T04:45:39.938Z,95.31
2019-01-14T04:46:40.108Z,96.08
2019-01-14T04:47:40.295Z,95.89
2019-01-14T04:48:40.447Z,96.26
2019-01-14T04:49:40.639Z,95.89
2019-01-14T04:50:40.795Z,96.08
2019-01-14T04:51:40.977Z,96.08
2019-01-14T04:52:41.126Z,95.70
2019-01-14T04:53:41.307Z,96.64
2019-01-14T04:54:41.460Z,96.36
2019-01-14T04:55:41.641Z,96.55
2019-01-14T04:56:41.802Z,96.41
2019-01-14T04:57:41.976Z,96.93
2019-01-14T04:58:42.162Z,97.02
2019-01-14T04:59:42.317Z,96.55
2019-01-14T05:00:42.484Z,96.26
2019-01-14T05:01:42.688Z,96.83
2019-01-14T05:02:42.835Z,97.22
2019-01-14T05:03:44.712Z,96.83
2019-01-14T05:04:43.178Z,96.93
2019-01-14T05:05:43.350Z,96.74
2019-01-14T05:06:43.521Z,97.41
2019-01-14T05:07:43.690Z,97.69
2019-01-14T05:08:43.864Z,97.36
2019-01-14T05:09:44.036Z,97.12
2019-01-14T05:10:44.211Z,97.31
2019-01-14T05:11:44.389Z,97.12
2019-01-14T05:12:44.551Z,97.22
2019-01-14T05:13:44.729Z,96.74
2019-01-14T05:14:44.899Z,96.83
2019-01-14T05:15:45.072Z,96.36
2019-01-14T05:16:45.244Z,96.74
2019-01-14T05:17:45.421Z,97.02
2019-01-14T05:18:45.586Z,96.83
2019-01-14T05:19:45.775Z,97.41
2019-01-14T05:20:45.935Z,97.88
2019-01-14T05:21:46.101Z,97.02
2019-01-14T05:22:46.281Z,97.22
2019-01-14T05:23:46.453Z,96.93
2019-01-14T05:24:46.625Z,96.55
2019-01-14T05:25:46.804Z,97.22
2019-01-14T05:26:46.971Z,96.93
2019-01-14T05:27:47.143Z,96.83
2019-01-14T05:28:47.319Z,96.45
2019-01-14T05:29:47.485Z,96.08
2019-01-14T05:30:47.651Z,96.08
2019-01-14T05:31:47.829Z,95.79
2019-01-14T05:32:47.995Z,96.36
2019-01-14T05:33:48.168Z,95.70
2019-01-14T05:34:48.342Z,95.98
2019-01-14T05:35:48.515Z,95.51
2019-01-14T05:36:48.691Z,95.31
2019-01-14T05:37:48.861Z,95.41
2019-01-14T05:38:49.027Z,96.17
2019-01-14T05:39:49.204Z,96.08
2019-01-14T05:40:49.396Z,97.31
2019-01-14T05:41:49.549Z,97.41
2019-01-14T05:42:49.716Z,97.78
2019-01-14T05:43:49.888Z,97.41
2019-01-14T05:44:50.063Z,97.88
2019-01-14T05:45:50.242Z,98.40
2019-01-14T05:46:50.404Z,98.87
2019-01-14T05:47:50.606Z,99.06
2019-01-14T05:48:50.755Z,99.06
2019-01-14T05:49:50.925Z,98.87
2019-01-14T05:50:51.097Z,98.97
2019-01-14T05:51:51.266Z,99.54
2019-01-14T05:52:51.437Z,99.82
2019-01-14T05:53:51.618Z,99.44
2019-01-14T05:54:51.789Z,99.35
2019-01-14T05:55:51.952Z,99.82
2019-01-14T05:56:52.124Z,99.82
2019-01-14T05:57:52.301Z,99.99
2019-01-14T05:58:52.470Z,99.99
2019-01-14T05:59:52.640Z,99.82
2019-01-14T06:00:52.822Z,99.73
2019-01-14T06:01:52.988Z,99.99
2019-01-14T06:02:53.161Z,99.26
2019-01-14T06:03:53.333Z,99.16
2019-01-14T06:04:53.505Z,99.99
2019-01-14T06:05:53.683Z,99.91
2019-01-14T06:06:53.855Z,99.73
2019-01-14T06:07:54.032Z,99.63
2019-01-14T06:08:54.216Z,99.35
2019-01-14T06:09:54.405Z,99.44
2019-01-14T06:10:54.555Z,99.99
2019-01-14T06:11:54.729Z,99.99
2019-01-14T06:12:54.898Z,99.82
2019-01-14T06:13:55.071Z,99.54
2019-01-14T06:14:55.244Z,98.97
2019-01-14T06:15:55.414Z,98.59
2019-01-14T06:16:55.588Z,98.40
2019-01-14T06:17:55.757Z,98.02
2019-01-14T06:18:55.929Z,97.45
2019-01-14T06:19:56.102Z,97.36
2019-01-14T06:20:56.288Z,97.64
2019-01-14T06:21:56.441Z,98.02
2019-01-14T06:22:56.612Z,97.92
2019-01-14T06:23:56.795Z,97.92
2019-01-14T06:24:56.951Z,98.87
2019-01-14T06:25:57.124Z,98.49
2019-01-14T06:26:57.305Z,98.49
2019-01-14T06:27:57.472Z,98.21
2019-01-14T06:28:57.651Z,99.16
2019-01-14T06:29:57.811Z,98.68
2019-01-14T06:30:57.977Z,98.97
2019-01-14T06:31:58.187Z,98.78
2019-01-14T06:32:58.294Z,99.06
2019-01-14T06:33:58.505Z,98.78
2019-01-14T06:34:58.657Z,98.02
2019-01-14T06:35:59.203Z,98.64
2019-01-14T06:36:59.002Z,98.26
2019-01-14T06:37:59.178Z,97.88
2019-01-14T06:38:59.346Z,97.17
2019-01-14T06:39:59.518Z,96.17
2019-01-14T06:40:59.691Z,97.22
2019-01-14T06:41:59.863Z,96.36
2019-01-14T06:43:00.038Z,96.36
2019-01-14T06:44:00.213Z,95.79
2019-01-14T06:45:00.369Z,96.17
2019-01-14T06:46:00.560Z,96.45
2019-01-14T06:47:00.739Z,96.55
2019-01-14T06:48:00.906Z,96.45
2019-01-14T06:49:01.076Z,96.83
2019-01-14T06:50:01.249Z,95.79
2019-01-14T06:51:01.428Z,96.08
2019-01-14T06:52:01.591Z,96.12
2019-01-14T06:53:01.769Z,96.74
2019-01-14T06:54:01.970Z,96.36
2019-01-14T06:55:02.132Z,96.26
2019-01-14T06:56:02.283Z,96.03
2019-01-14T06:57:02.455Z,96.59
2019-01-14T06:58:02.625Z,96.41
2019-01-14T06:59:02.801Z,98.02
2019-01-14T07:00:02.971Z,97.88
2019-01-14T07:02:03.313Z,97.22
2019-01-14T07:03:03.480Z,96.50
2019-01-14T07:04:03.706Z,96.22
2019-01-14T07:05:03.840Z,96.69
2019-01-14T07:07:04.152Z,96.22
2019-01-14T07:08:04.330Z,95.79
2019-01-14T07:09:04.504Z,95.22
2019-01-14T07:10:04.682Z,95.27
2019-01-14T07:11:04.846Z,95.31
2019-01-14T07:12:05.021Z,95.31
2019-01-14T07:13:05.199Z,94.56
2019-01-14T07:14:05.376Z,94.51
2019-01-14T07:15:05.547Z,94.60
2019-01-14T07:16:05.725Z,94.51
2019-01-14T07:17:05.891Z,95.07
2019-01-14T07:18:06.063Z,94.89
2019-01-14T07:19:06.250Z,95.07
2019-01-14T07:20:06.414Z,95.84
2019-01-14T07:21:06.586Z,96.78
2019-01-14T07:22:06.764Z,96.45
2019-01-14T07:23:08.246Z,96.26
2019-01-14T07:24:07.098Z,94.89
2019-01-14T07:25:07.257Z,94.08
2019-01-14T07:26:07.425Z,93.84
2019-01-14T07:27:07.598Z,94.03
2019-01-14T07:28:07.764Z,94.23
2019-01-14T07:29:07.935Z,94.32
2019-01-14T07:30:08.106Z,94.23
2019-01-14T07:31:08.300Z,93.18
2019-01-14T07:32:08.472Z,92.52
2019-01-14T07:33:08.693Z,92.42
2019-01-14T07:34:08.813Z,92.37
2019-01-14T07:35:08.977Z,91.52
2019-01-14T07:36:09.152Z,91.71
2019-01-14T07:37:09.325Z,91.71
2019-01-14T07:38:09.501Z,91.99
2019-01-14T07:39:09.664Z,91.89
2019-01-14T07:40:09.847Z,92.75
2019-01-14T07:41:10.016Z,91.89
2019-01-14T07:42:10.204Z,91.80
2019-01-14T07:43:10.361Z,92.18
2019-01-14T07:44:10.545Z,92.28
2019-01-14T07:45:10.708Z,91.61
2019-01-14T07:46:10.881Z,91.80
2019-01-14T07:47:11.059Z,91.71
2019-01-14T07:48:11.231Z,92.47
2019-01-14T07:49:11.398Z,92.33
2019-01-14T07:50:11.569Z,92.28
2019-01-14T07:51:11.739Z,92.18
2019-01-14T07:52:11.911Z,92.18
2019-01-14T07:53:12.096Z,92.85
2019-01-14T07:54:12.275Z,92.85
2019-01-14T07:55:12.431Z,92.37
2019-01-14T07:56:12.607Z,91.52
2019-01-14T07:57:12.780Z,91.80
2019-01-14T07:58:12.959Z,91.80
2019-01-14T07:59:13.134Z,91.71
2019-01-14T08:00:13.295Z,91.42
2019-01-14T08:01:13.478Z,91.71
2019-01-14T08:02:13.637Z,91.42
2019-01-14T08:03:13.819Z,91.71
2019-01-14T08:04:13.980Z,92.18
2019-01-14T08:05:14.157Z,92.47
2019-01-14T08:06:14.334Z,92.09
2019-01-14T08:07:14.503Z,91.71
2019-01-14T08:08:14.686Z,91.80
2019-01-14T08:09:14.862Z,91.33
2019-01-14T08:10:15.024Z,91.42
2019-01-14T08:11:15.198Z,90.66
2019-01-14T08:12:15.362Z,90.66
2019-01-14T08:13:15.546Z,90.57
2019-01-14T08:14:15.702Z,90.85
2019-01-14T08:15:15.875Z,91.04
2019-01-14T08:16:16.042Z,90.95
2019-01-14T08:17:16.215Z,90.57
2019-01-14T08:18:16.391Z,90.47
2019-01-14T08:19:16.563Z,90.85
2019-01-14T08:20:16.753Z,90.76
2019-01-14T08:21:16.922Z,89.72
2019-01-14T08:22:17.094Z,90.28
2019-01-14T08:23:17.268Z,90.57
2019-01-14T08:24:17.441Z,90.76
2019-01-14T08:25:17.611Z,90.85
2019-01-14T08:26:17.774Z,91.14
2019-01-14T08:27:17.966Z,91.14
2019-01-14T08:28:18.179Z,90.90
2019-01-14T08:29:18.301Z,91.00
2019-01-14T08:30:18.470Z,90.43
2019-01-14T08:31:18.650Z,91.09
2019-01-14T08:32:18.818Z,91.47
2019-01-14T08:33:18.984Z,91.38
2019-01-14T08:34:19.152Z,91.38
2019-01-14T08:35:19.321Z,91.00
2019-01-14T08:36:19.500Z,90.62
2019-01-14T08:37:19.676Z,91.09
2019-01-14T08:38:21.378Z,91.09
2019-01-14T08:39:20.005Z,91.19
2019-01-14T08:40:20.186Z,90.81
2019-01-14T08:41:20.353Z,91.19
2019-01-14T08:42:20.524Z,90.90
2019-01-14T08:43:20.696Z,90.62
2019-01-14T08:44:20.862Z,90.62
2019-01-14T08:45:21.038Z,91.19
2019-01-14T08:46:21.208Z,91.19
2019-01-14T08:47:21.386Z,90.81
2019-01-14T08:48:21.565Z,91.38
2019-01-14T08:49:21.735Z,90.43
2019-01-14T08:50:21.901Z,91.24
2019-01-14T08:51:22.077Z,90.71
2019-01-14T08:52:22.248Z,90.57
2019-01-14T08:53:22.419Z,91.04
2019-01-14T08:54:22.593Z,90.66
2019-01-14T08:55:22.764Z,90.95
2019-01-14T08:56:22.943Z,90.66
2019-01-14T08:57:23.110Z,90.66
2019-01-14T08:58:23.285Z,91.14
2019-01-14T08:59:23.448Z,89.72
2019-01-14T09:00:23.619Z,88.57
2019-01-14T09:01:23.792Z,88.10
2019-01-14T09:02:23.978Z,87.72
2019-01-14T09:03:24.143Z,87.82
2019-01-14T09:04:24.539Z,87.91
2019-01-14T09:05:24.486Z,87.34
2019-01-14T09:06:24.672Z,87.05
2019-01-14T09:07:24.820Z,86.87
2019-01-14T09:08:28.729Z,87.05
2019-01-14T09:09:25.167Z,87.05
2019-01-14T09:10:25.342Z,87.05
2019-01-14T09:11:25.524Z,87.05
2019-01-14T09:12:25.688Z,87.53
2019-01-14T09:13:25.859Z,87.62
2019-01-14T09:14:26.031Z,87.53
2019-01-14T09:15:26.203Z,86.68
2019-01-14T09:16:26.369Z,86.30
2019-01-14T09:17:26.543Z,87.05
2019-01-14T09:18:26.720Z,86.30
2019-01-14T09:19:26.889Z,86.49
2019-01-14T09:20:27.064Z,86.77
2019-01-14T09:21:27.242Z,86.58
2019-01-14T09:22:27.407Z,86.15
2019-01-14T09:23:27.579Z,86.24
2019-01-14T09:24:27.749Z,86.24
2019-01-14T09:25:27.918Z,86.49
2019-01-14T09:26:28.101Z,86.20
2019-01-14T09:27:28.278Z,86.58
2019-01-14T09:28:28.444Z,86.77
2019-01-14T09:29:28.616Z,87.05
2019-01-14T09:30:28.798Z,87.34
2019-01-14T09:31:28.959Z,87.34
2019-01-14T09:32:29.145Z,87.62
2019-01-14T09:33:29.298Z,87.34
2019-01-14T09:34:29.472Z,87.53
2019-01-14T09:35:29.646Z,87.24
2019-01-14T09:36:29.829Z,87.82
2019-01-14T09:37:30.001Z,87.24
2019-01-14T09:38:35.807Z,87.34
2019-01-14T09:39:30.334Z,88.10
2019-01-14T09:40:30.541Z,87.15
2019-01-14T09:41:30.688Z,88.10
2019-01-14T09:42:30.860Z,88.10
2019-01-14T09:43:31.029Z,88.01
2019-01-14T09:44:31.205Z,88.39
2019-01-14T09:45:31.380Z,87.53
2019-01-14T09:46:31.543Z,87.91
2019-01-14T09:47:31.719Z,88.20
2019-01-14T09:48:31.888Z,88.39
2019-01-14T09:49:32.064Z,88.20
2019-01-14T09:50:32.232Z,87.34
2019-01-14T09:51:32.399Z,88.10
2019-01-14T09:52:32.581Z,87.34
2019-01-14T09:53:32.747Z,87.34
2019-01-14T09:54:32.929Z,88.39
2019-01-14T09:55:33.097Z,87.72
2019-01-14T09:56:33.261Z,88.10
2019-01-14T09:57:34.725Z,87.91
2019-01-14T09:58:33.605Z,88.20
2019-01-14T09:59:33.774Z,88.29
2019-01-14T10:00:33.955Z,88.01
2019-01-14T10:01:34.130Z,88.10
2019-01-14T10:02:34.886Z,88.01
2019-01-14T10:03:34.505Z,88.39
2019-01-14T10:04:34.673Z,88.57
2019-01-14T10:05:34.844Z,89.14
2019-01-14T10:06:35.030Z,88.86
2019-01-14T10:07:35.201Z,88.10
2019-01-14T10:08:35.358Z,89.24
2019-01-14T10:09:35.541Z,90.28
2019-01-14T10:10:35.724Z,91.24
2019-01-14T10:11:35.877Z,92.14
2019-01-14T10:12:36.037Z,93.27
2019-01-14T10:13:36.205Z,94.60
2019-01-14T10:14:36.382Z,95.27
2019-01-14T10:15:36.557Z,95.55
2019-01-14T10:16:36.724Z,96.97
2019-01-14T10:17:36.895Z,97.36
2019-01-14T10:18:37.198Z,97.78
2019-01-14T10:19:37.241Z,98.73
2019-01-14T10:20:37.522Z,98.92
2019-01-14T10:21:37.565Z,99.49
2019-01-14T10:22:37.743Z,99.96
2019-01-14T10:23:37.918Z,99.96
2019-01-14T10:24:38.086Z,99.99
2019-01-14T10:25:38.266Z,99.99
2019-01-14T10:26:38.430Z,99.99
2019-01-14T10:27:38.590Z,99.99
2019-01-14T10:28:38.769Z,99.99
2019-01-14T10:29:38.974Z,99.99
2019-01-14T10:30:39.097Z,99.96
2019-01-14T10:31:39.271Z,99.68
2019-01-14T10:32:39.418Z,99.99
2019-01-14T10:33:39.663Z,98.35
2019-01-14T10:34:39.707Z,98.35
2019-01-14T10:35:39.878Z,97.02
2019-01-14T10:36:40.061Z,96.08
2019-01-14T10:37:40.323Z,96.92
2019-01-14T10:38:40.373Z,96.22
2019-01-14T10:39:40.553Z,95.93
2019-01-14T10:40:40.719Z,94.89
2019-01-14T10:41:40.896Z,94.51
2019-01-14T10:42:41.072Z,93.99
2019-01-14T10:43:41.236Z,92.61
2019-01-14T10:44:41.457Z,91.85
2019-01-14T10:45:41.564Z,90.81
2019-01-14T10:46:41.864Z,90.52
2019-01-14T10:47:42.454Z,90.05
2019-01-14T10:48:42.138Z,90.14
2019-01-14T10:49:42.314Z,89.00
2019-01-14T10:50:42.490Z,89.29
2019-01-14T10:51:42.650Z,89.05
2019-01-14T10:52:42.818Z,88.48
2019-01-14T10:53:42.994Z,88.39
2019-01-14T10:54:43.139Z,87.87
2019-01-14T10:55:43.305Z,87.15
2019-01-14T10:56:44.236Z,87.11
2019-01-14T10:57:43.705Z,87.01
2019-01-14T10:58:43.803Z,86.72
2019-01-14T10:59:43.982Z,87.01
2019-01-14T11:00:44.147Z,87.30
2019-01-14T11:01:44.329Z,87.68
2019-01-14T11:02:47.977Z,87.58
2019-01-14T11:03:44.641Z,87.68
2019-01-14T11:04:44.815Z,87.77
2019-01-14T11:05:44.984Z,87.20
2019-01-14T11:06:45.188Z,86.39
2019-01-14T11:07:45.454Z,85.91
2019-01-14T11:08:45.501Z,86.30
2019-01-14T11:09:45.672Z,86.87
2019-01-14T11:10:45.852Z,85.39
2019-01-14T11:11:46.011Z,81.38
2019-01-14T11:12:46.178Z,77.81
2019-01-14T11:13:46.344Z,76.10
2019-01-14T11:14:46.511Z,76.63
2019-01-14T11:15:46.684Z,77.64
2019-01-14T11:16:46.871Z,78.64
2019-01-14T11:17:47.032Z,77.45
2019-01-14T11:18:47.223Z,76.06
2019-01-14T11:19:47.382Z,74.87
2019-01-14T11:20:47.573Z,74.54
2019-01-14T11:21:47.735Z,75.40
2019-01-14T11:22:47.891Z,74.44
2019-01-14T11:23:48.073Z,73.59
2019-01-14T11:24:48.248Z,72.60
2019-01-14T11:25:48.419Z,72.45
2019-01-14T11:26:48.577Z,70.20
2019-01-14T11:27:48.780Z,69.56
2019-01-14T11:28:48.975Z,72.09
2019-01-14T11:29:49.131Z,72.64
2019-01-14T11:30:49.331Z,72.60
2019-01-14T11:31:49.474Z,71.46
2019-01-14T11:32:49.645Z,72.41
2019-01-14T11:33:49.806Z,72.70
2019-01-14T11:34:49.977Z,72.51
2019-01-14T11:35:50.157Z,72.39
2019-01-14T11:36:50.331Z,69.19
2019-01-14T11:37:50.497Z,67.10
2019-01-14T11:38:50.676Z,66.46
2019-01-14T11:39:50.843Z,67.54
2019-01-14T11:40:51.018Z,66.85
2019-01-14T11:41:51.196Z,65.13
2019-01-14T11:42:51.383Z,65.54
2019-01-14T11:43:51.540Z,67.50
2019-01-14T11:44:51.713Z,67.60
2019-01-14T11:45:51.888Z,68.99
2019-01-14T11:46:52.056Z,69.37
2019-01-14T11:47:52.227Z,70.42
2019-01-14T11:48:52.405Z,70.64
2019-01-14T11:49:52.579Z,68.87
2019-01-14T11:50:52.762Z,67.79
2019-01-14T11:51:52.927Z,69.27
2019-01-14T11:52:53.102Z,69.54
2019-01-14T11:53:53.276Z,68.84
2019-01-14T11:54:53.449Z,70.04
2019-01-14T11:55:53.623Z,70.48
2019-01-14T11:56:53.803Z,71.62
2019-01-14T11:57:53.978Z,72.19
2019-01-14T11:58:54.154Z,71.66
2019-01-14T11:59:54.330Z,71.75
2019-01-14T12:00:54.503Z,68.87
2019-01-14T12:01:54.700Z,67.41
2019-01-14T12:02:54.860Z,67.07
2019-01-14T12:03:55.091Z,67.16
2019-01-14T12:04:55.272Z,65.70
2019-01-14T12:05:55.439Z,64.47
2019-01-14T12:06:55.619Z,62.88
2019-01-14T12:07:55.791Z,62.08
2019-01-14T12:08:55.974Z,62.18
2019-01-14T12:09:56.142Z,61.51
2019-01-14T12:10:56.346Z,60.78
2019-01-14T12:11:56.526Z,60.33
2019-01-14T12:12:56.705Z,58.97
2019-01-14T12:13:56.869Z,58.65
2019-01-14T12:14:57.060Z,59.86
2019-01-14T12:15:57.220Z,60.24
2019-01-14T12:16:57.399Z,59.77
2019-01-14T12:17:57.590Z,59.32
2019-01-14T12:18:57.771Z,58.65
2019-01-14T12:19:57.932Z,58.56
2019-01-14T12:20:58.118Z,58.72
2019-01-14T12:21:58.362Z,60.08
2019-01-14T12:22:58.402Z,59.92
2019-01-14T12:23:58.577Z,59.09
2019-01-14T12:24:58.932Z,57.98
2019-01-14T12:25:58.998Z,56.55
2019-01-14T12:26:59.198Z,55.98
2019-01-14T12:27:59.349Z,56.36
2019-01-14T12:28:59.638Z,56.58
2019-01-14T12:29:59.770Z,55.53
2019-01-14T12:31:00.046Z,55.65
2019-01-14T12:33:00.696Z,54.26
2019-01-14T12:34:00.881Z,54.52
2019-01-14T12:35:00.542Z,55.07
2019-01-14T12:36:00.742Z,55.76
2019-01-14T12:37:00.928Z,55.66
2019-01-14T12:38:01.091Z,55.83
2019-01-14T12:39:01.282Z,55.99
2019-01-14T12:40:01.462Z,56.63
2019-01-14T12:41:01.699Z,57.89
2019-01-14T12:42:01.770Z,57.42
2019-01-14T12:43:01.964Z,57.81
2019-01-14T12:44:02.272Z,60.35
2019-01-14T12:45:02.403Z,61.52
2019-01-14T12:46:02.481Z,62.21
2019-01-14T12:47:02.690Z,64.24
2019-01-14T12:48:02.854Z,65.47
2019-01-14T12:49:03.159Z,65.25
2019-01-14T12:50:03.213Z,66.11
2019-01-14T12:51:03.431Z,66.67
2019-01-14T12:52:03.776Z,67.06
2019-01-14T12:53:03.845Z,66.67
2019-01-14T12:54:04.015Z,66.14
2019-01-14T12:55:04.204Z,65.03
2019-01-14T12:56:04.366Z,62.88
2019-01-14T12:57:04.691Z,62.12
2019-01-14T12:58:04.936Z,61.74
2019-01-14T12:59:04.983Z,61.48
2019-01-14T13:00:05.172Z,60.69
2019-01-14T13:01:05.320Z,59.16
2019-01-14T13:02:05.502Z,57.86
2019-01-14T13:03:05.722Z,57.42